Time;durP1;ratioP1;P1;durP2;ratioP2;P2;SDS_P1;SDS_P2;PMS_P1;PMS_P2;Temp;Humidity;BMP_temperature;BMP_pressure;BME280_temperature;BME280_humidity;BME280_pressure;Samples;Min_cycle;Max_cycle;Signal;HPM_P1;HPM_P2
2021/05/17 00:00:57;;;;;;;5.57;2.20;;;10.40;97.30;;;;;;4942174;29;21028;-85
2021/05/17 00:03:24;;;;;;;5.43;2.40;;;10.40;97.30;;;;;;4942440;29;20662;-85
2021/05/17 00:05:50;;;;;;;4.67;2.30;;;10.50;97.30;;;;;;4925126;29;20467;-85
2021/05/17 00:08:16;;;;;;;6.20;1.93;;;10.50;97.30;;;;;;4925193;29;20415;-85
2021/05/17 00:10:42;;;;;;;5.30;2.10;;;10.60;97.30;;;;;;4925251;29;20726;-85
2021/05/17 00:13:08;;;;;;;4.73;2.47;;;10.60;97.30;;;;;;4942566;29;20180;-85
2021/05/17 00:15:34;;;;;;;2.47;2.10;;;10.70;97.30;;;;;;4926021;29;20520;-86
2021/05/17 00:17:59;;;;;;;3.10;2.17;;;10.70;97.30;;;;;;4925528;29;20296;-85
2021/05/17 00:20:26;;;;;;;9.40;2.40;;;10.70;97.30;;;;;;4925070;29;20278;-85
2021/05/17 00:22:53;;;;;;;3.97;2.47;;;10.80;97.30;;;;;;4941698;29;20207;-85
2021/05/17 00:25:23;;;;;;;9.30;2.40;;;10.80;97.30;;;;;;4924534;29;20559;-85
2021/05/17 00:27:50;;;;;;;3.27;2.03;;;10.80;97.30;;;;;;4924137;29;20439;-85
2021/05/17 00:30:16;;;;;;;2.80;2.37;;;10.90;97.30;;;;;;4924257;29;20423;-85
2021/05/17 00:32:43;;;;;;;6.70;2.57;;;10.90;97.30;;;;;;4924329;29;20447;-85
2021/05/17 00:35:09;;;;;;;3.37;2.20;;;10.90;97.30;;;;;;4924438;29;20957;-85
2021/05/17 00:37:35;;;;;;;3.23;2.20;;;10.90;97.30;;;;;;4924556;29;20428;-85
2021/05/17 00:40:01;;;;;;;3.83;2.00;;;10.90;97.30;;;;;;4941666;29;20435;-86
2021/05/17 00:42:27;;;;;;;2.97;2.20;;;10.90;97.30;;;;;;4924330;29;20415;-85
2021/05/17 00:44:52;;;;;;;2.40;2.10;;;10.90;97.30;;;;;;4924311;29;20180;-85
2021/05/17 00:47:18;;;;;;;3.83;1.90;;;11.00;97.30;;;;;;4924273;29;20202;-86
2021/05/17 00:49:45;;;;;;;2.80;2.07;;;11.00;97.30;;;;;;4924128;29;20254;-85
2021/05/17 00:52:13;;;;;;;3.97;2.03;;;11.10;97.30;;;;;;4924363;29;20973;-85
2021/05/17 00:54:39;;;;;;;3.67;2.23;;;11.10;97.30;;;;;;4924089;29;20555;-85
2021/05/17 00:57:05;;;;;;;3.27;2.27;;;11.10;97.30;;;;;;4924230;29;21001;-86
2021/05/17 00:59:32;;;;;;;5.83;2.07;;;11.10;97.30;;;;;;4924353;29;20180;-84
2021/05/17 01:01:58;;;;;;;4.37;2.03;;;11.00;97.30;;;;;;4924456;29;20525;-84
2021/05/17 01:04:23;;;;;;;5.37;2.40;;;11.00;97.30;;;;;;4941490;29;20411;-84
2021/05/17 01:06:52;;;;;;;3.03;2.43;;;11.00;97.30;;;;;;4939190;29;20199;-84
2021/05/17 01:09:18;;;;;;;3.23;2.20;;;10.90;97.30;;;;;;4921852;29;20235;-84
2021/05/17 01:11:44;;;;;;;2.37;2.00;;;10.80;97.30;;;;;;4921525;29;20435;-84
2021/05/17 01:14:10;;;;;;;2.20;2.10;;;10.70;97.30;;;;;;4921905;29;20986;-85
2021/05/17 01:16:37;;;;;;;3.13;2.03;;;10.70;97.30;;;;;;4921774;29;20929;-84
2021/05/17 01:19:12;;;;;;;4.00;1.90;;;10.70;97.30;;;;;;4921402;29;20427;-84
2021/05/17 01:21:40;;;;;;;4.93;2.10;;;10.60;97.30;;;;;;4921710;29;20491;-87
2021/05/17 01:24:07;;;;;;;2.87;2.33;;;10.60;97.30;;;;;;4938469;29;20482;-84
2021/05/17 01:26:35;;;;;;;1.83;1.70;;;10.60;97.30;;;;;;4921504;29;20469;-85
2021/05/17 01:29:08;;;;;;;5.47;2.60;;;10.50;97.30;;;;;;4939043;29;20495;-85
2021/05/17 01:31:37;;;;;;;3.03;2.00;;;10.50;97.30;;;;;;4927824;29;20476;-87
2021/05/17 01:34:03;;;;;;;6.70;3.00;;;10.60;97.30;;;;;;4940888;29;20482;-87
2021/05/17 01:36:30;;;;;;;2.20;1.80;;;10.60;97.30;;;;;;4941457;29;20495;-89
2021/05/17 01:38:56;;;;;;;5.70;2.10;;;10.60;97.30;;;;;;4941178;29;20423;-88
2021/05/17 01:41:26;;;;;;;5.73;2.33;;;10.50;97.30;;;;;;4942316;29;20452;-88
2021/05/17 01:43:54;;;;;;;2.37;1.97;;;10.60;97.30;;;;;;4942228;29;20444;-89
2021/05/17 01:46:40;;;;;;;3.73;2.37;;;10.60;97.30;;;;;;4958958;29;20474;-86
2021/05/17 01:49:06;;;;;;;3.33;2.20;;;10.60;97.30;;;;;;4958041;29;20400;-86
2021/05/17 01:51:31;;;;;;;4.40;1.87;;;10.60;97.30;;;;;;4941162;29;20463;-91
2021/05/17 01:53:59;;;;;;;2.80;2.03;;;10.60;97.30;;;;;;4937198;29;20424;-88
2021/05/17 01:56:25;;;;;;;2.50;1.70;;;10.60;97.30;;;;;;4909179;29;20181;-85
2021/05/17 01:58:51;;;;;;;2.80;2.07;;;10.60;97.30;;;;;;4902690;29;20421;-85
2021/05/17 02:01:17;;;;;;;5.80;2.00;;;10.60;97.30;;;;;;4919264;29;20474;-85
2021/05/17 02:03:45;;;;;;;3.07;1.90;;;10.60;97.30;;;;;;4902620;29;20192;-86
2021/05/17 02:06:12;;;;;;;3.20;2.33;;;10.60;97.30;;;;;;4902487;29;20841;-85
2021/05/17 02:08:44;;;;;;;3.10;1.80;;;10.60;97.30;;;;;;4918348;29;20453;-85
2021/05/17 02:11:11;;;;;;;2.87;2.13;;;10.60;97.30;;;;;;4918207;29;20444;-85
2021/05/17 02:13:38;;;;;;;3.77;2.37;;;10.60;97.30;;;;;;4918441;29;20480;-85
2021/05/17 02:16:04;;;;;;;3.13;2.30;;;10.60;97.30;;;;;;4917984;29;20420;-86
2021/05/17 02:18:30;;;;;;;4.97;2.50;;;10.60;97.30;;;;;;4900590;29;20528;-86
2021/05/17 02:20:56;;;;;;;3.10;2.30;;;10.50;97.30;;;;;;4900939;29;20531;-85
2021/05/17 02:23:21;;;;;;;3.33;2.13;;;10.50;97.30;;;;;;4901177;29;20516;-85
2021/05/17 02:25:49;;;;;;;2.60;2.20;;;10.50;97.30;;;;;;4901062;29;20204;-85
2021/05/17 02:28:15;;;;;;;3.43;2.20;;;10.50;97.30;;;;;;4900848;29;20184;-86
2021/05/17 02:30:42;;;;;;;3.73;2.23;;;10.50;97.30;;;;;;4900482;29;20464;-85
2021/05/17 02:33:09;;;;;;;3.77;2.60;;;10.50;97.30;;;;;;4917500;29;20441;-85
2021/05/17 02:35:35;;;;;;;5.23;2.23;;;10.40;97.30;;;;;;4900765;29;20974;-85
2021/05/17 02:38:02;;;;;;;4.20;2.57;;;10.40;97.30;;;;;;4900986;29;20429;-85
2021/05/17 02:40:28;;;;;;;7.50;2.40;;;10.40;97.30;;;;;;4900745;29;20448;-85
2021/05/17 02:43:06;;;;;;;4.17;2.30;;;10.40;97.30;;;;;;4900950;29;20800;-85
2021/05/17 02:45:33;;;;;;;6.33;2.50;;;10.40;97.30;;;;;;4901007;29;20464;-85
2021/05/17 02:48:00;;;;;;;5.90;2.57;;;10.30;97.30;;;;;;4918234;29;20423;-85
2021/05/17 02:50:34;;;;;;;9.43;2.90;;;10.30;97.30;;;;;;4900755;29;21006;-86
2021/05/17 02:53:02;;;;;;;4.90;2.97;;;10.30;97.30;;;;;;4901150;29;20948;-85
2021/05/17 02:55:30;;;;;;;5.17;2.90;;;10.30;97.30;;;;;;4900755;29;20420;-85
2021/05/17 02:58:17;;;;;;;4.80;2.50;;;10.30;97.30;;;;;;4901038;29;20431;-85
2021/05/17 03:00:47;;;;;;;3.60;2.93;;;10.20;97.30;;;;;;4906429;29;20512;-87
2021/05/17 03:03:16;;;;;;;6.20;3.20;;;10.20;97.30;;;;;;4916787;29;20455;-86
2021/05/17 03:05:44;;;;;;;5.90;2.90;;;10.20;97.30;;;;;;4916263;29;20461;-85
2021/05/17 03:08:12;;;;;;;4.53;3.03;;;10.10;97.30;;;;;;4916963;29;20499;-85
2021/05/17 03:10:40;;;;;;;4.13;2.70;;;10.10;97.30;;;;;;4916963;29;20448;-85
2021/05/17 03:13:17;;;;;;;7.37;3.17;;;10.20;97.30;;;;;;4917368;29;20420;-86
2021/05/17 03:15:45;;;;;;;5.50;2.33;;;10.20;97.30;;;;;;4917102;29;21161;-85
2021/05/17 03:18:11;;;;;;;3.97;2.77;;;10.20;97.30;;;;;;4917879;29;20452;-85
2021/05/17 03:20:38;;;;;;;7.33;3.60;;;10.20;97.30;;;;;;4918660;29;21017;-85
2021/05/17 03:23:10;;;;;;;4.80;2.57;;;10.10;97.30;;;;;;4918790;29;20691;-85
2021/05/17 03:25:37;;;;;;;4.80;2.83;;;10.10;97.30;;;;;;4917075;29;20494;-85
2021/05/17 03:28:03;;;;;;;6.40;2.60;;;10.00;97.30;;;;;;4916868;29;20415;-86
2021/05/17 03:30:28;;;;;;;3.87;3.00;;;10.00;97.30;;;;;;4916431;29;20449;-85
2021/05/17 03:32:54;;;;;;;4.73;2.87;;;10.00;97.30;;;;;;4917110;29;20184;-85
2021/05/17 03:35:20;;;;;;;5.17;3.07;;;9.90;97.30;;;;;;4916612;29;20185;-85
2021/05/17 03:37:46;;;;;;;5.33;3.30;;;9.90;97.30;;;;;;4916032;29;20428;-85
2021/05/17 03:40:14;;;;;;;6.23;3.33;;;9.90;97.30;;;;;;4915927;29;20201;-85
2021/05/17 03:42:40;;;;;;;7.50;3.70;;;9.90;97.30;;;;;;4915400;29;20440;-85
2021/05/17 03:45:07;;;;;;;6.03;3.07;;;9.90;97.30;;;;;;4915732;29;20424;-85
2021/05/17 03:47:33;;;;;;;4.87;3.10;;;9.90;97.30;;;;;;4915424;29;20471;-85
2021/05/17 03:49:59;;;;;;;4.57;3.03;;;9.90;97.30;;;;;;4916558;29;20436;-85
2021/05/17 03:52:24;;;;;;;4.77;3.70;;;9.90;97.30;;;;;;4915839;29;20204;-85
2021/05/17 03:54:50;;;;;;;5.20;3.13;;;10.00;97.30;;;;;;4915550;29;20534;-85
2021/05/17 03:57:16;;;;;;;6.17;3.40;;;10.00;97.30;;;;;;4915770;29;20194;-85
2021/05/17 03:59:45;;;;;;;3.30;2.60;;;10.00;97.30;;;;;;4915509;29;20436;-85
2021/05/17 04:02:11;;;;;;;6.50;2.90;;;10.10;97.30;;;;;;4981917;23;20241;-87
2021/05/17 04:04:41;;;;;;;7.50;3.37;;;10.10;97.30;;;;;;4954009;29;21006;-88
2021/05/17 04:15:19;;;;;;;5.20;2.60;;;10.20;97.30;;;;;;4937131;29;20400;-88
2021/05/17 04:17:44;;;;;;;4.33;2.50;;;10.20;97.30;;;;;;4935905;29;20420;-88
2021/05/17 04:20:10;;;;;;;4.10;2.43;;;10.30;97.30;;;;;;4952235;29;20207;-89
2021/05/17 04:22:36;;;;;;;2.93;2.00;;;10.20;97.30;;;;;;4952021;29;20179;-88
2021/05/17 04:25:03;;;;;;;3.03;2.07;;;10.30;97.30;;;;;;4951932;29;20811;-89
2021/05/17 04:27:28;;;;;;;7.03;2.50;;;10.30;97.30;;;;;;4936405;29;20214;-88
2021/05/17 04:29:54;;;;;;;4.67;2.57;;;10.30;97.30;;;;;;4951987;29;20804;-88
2021/05/17 04:32:19;;;;;;;5.30;3.30;;;10.30;97.30;;;;;;4952175;29;20196;-88
2021/05/17 04:34:45;;;;;;;7.33;3.93;;;10.30;97.30;;;;;;4935905;29;20191;-91
2021/05/17 04:37:10;;;;;;;5.53;3.30;;;10.30;97.30;;;;;;4937942;29;20180;-89
2021/05/17 04:39:36;;;;;;;4.07;3.07;;;10.30;97.30;;;;;;4935501;29;20252;-88
2021/05/17 04:42:01;;;;;;;4.30;2.80;;;10.30;97.30;;;;;;4955272;29;20729;-89
2021/05/17 04:44:27;;;;;;;4.23;2.43;;;10.30;97.30;;;;;;4956030;29;20718;-89
2021/05/17 04:46:53;;;;;;;5.73;2.27;;;10.40;97.30;;;;;;4955934;29;20210;-88
2021/05/17 04:49:18;;;;;;;5.47;2.37;;;10.40;97.30;;;;;;4939728;29;20176;-88
2021/05/17 04:51:44;;;;;;;3.73;2.63;;;10.40;97.30;;;;;;4956531;29;20597;-89
2021/05/17 04:54:10;;;;;;;5.27;2.77;;;10.40;97.30;;;;;;4956189;29;20180;-88
2021/05/17 04:56:36;;;;;;;2.10;1.93;;;10.50;97.30;;;;;;4956225;29;20179;-88
2021/05/17 04:59:01;;;;;;;3.60;2.30;;;10.50;97.30;;;;;;4956251;29;20172;-89
2021/05/17 05:01:27;;;;;;;4.03;2.00;;;10.50;97.30;;;;;;4948222;29;20231;-88
2021/05/17 05:03:58;;;;;;;2.70;1.70;;;10.60;97.30;;;;;;4922387;29;20180;-87
2021/05/17 05:06:24;;;;;;;1.97;1.80;;;10.60;97.30;;;;;;4934966;29;20230;-88
2021/05/17 05:08:51;;;;;;;5.23;1.97;;;10.70;97.30;;;;;;4940315;29;20423;-88
2021/05/17 05:11:17;;;;;;;2.30;1.80;;;10.70;97.30;;;;;;4930204;29;20203;-89
2021/05/17 05:13:55;;;;;;;5.27;1.80;;;10.70;97.30;;;;;;4924496;29;20621;-88
2021/05/17 05:22:36;;;;;;;2.53;1.70;;;10.80;97.30;;;;;;4989099;23;20497;-76
2021/05/17 05:25:02;;;;;;;4.63;1.90;;;10.90;97.30;;;;;;4966401;28;20425;-76
2021/05/17 05:27:42;;;;;;;3.07;2.13;;;11.00;97.30;;;;;;4967895;28;20202;-76
2021/05/17 05:30:16;;;;;;;2.03;1.80;;;11.00;97.30;;;;;;4964066;28;20831;-76
2021/05/17 05:32:55;;;;;;;3.40;1.83;;;11.10;97.30;;;;;;4967007;28;20923;-75
2021/05/17 05:35:21;;;;;;;3.37;1.50;;;11.10;97.30;;;;;;4967488;28;20414;-76
2021/05/17 05:37:46;;;;;;;2.63;1.83;;;11.20;97.30;;;;;;4962587;28;20414;-75
2021/05/17 05:40:14;;;;;;;2.50;1.70;;;11.20;97.30;;;;;;4956477;28;20952;-75
2021/05/17 05:42:39;;;;;;;3.00;1.83;;;11.30;97.30;;;;;;4957014;28;20178;-76
2021/05/17 05:45:10;;;;;;;4.00;1.63;;;11.30;97.30;;;;;;4974109;28;20773;-75
2021/05/17 05:47:36;;;;;;;1.70;1.50;;;11.30;97.30;;;;;;4955464;28;20638;-75
2021/05/17 05:50:02;;;;;;;3.80;2.33;;;11.40;97.30;;;;;;4956568;28;20423;-75
2021/05/17 05:52:27;;;;;;;1.77;1.73;;;11.50;97.30;;;;;;4972816;28;20197;-75
2021/05/17 05:54:53;;;;;;;3.73;1.83;;;11.50;97.30;;;;;;4956480;28;20410;-75
2021/05/17 05:57:19;;;;;;;3.73;1.60;;;11.50;97.30;;;;;;4956327;28;20171;-75
2021/05/17 05:59:44;;;;;;;2.83;1.90;;;11.60;97.30;;;;;;4956496;28;20273;-75
2021/05/17 06:02:10;;;;;;;3.03;1.97;;;11.70;97.30;;;;;;4973168;28;20195;-76
2021/05/17 06:04:36;;;;;;;1.97;1.70;;;11.70;97.30;;;;;;4956517;28;20179;-76
2021/05/17 06:07:01;;;;;;;2.20;1.83;;;11.80;97.30;;;;;;4956407;28;20470;-76
2021/05/17 06:09:27;;;;;;;2.80;1.97;;;11.80;97.30;;;;;;4956421;28;20179;-76
2021/05/17 06:11:55;;;;;;;3.50;1.90;;;11.90;97.30;;;;;;4956245;28;20237;-76
2021/05/17 06:14:22;;;;;;;3.60;2.43;;;12.00;97.30;;;;;;4973406;28;20163;-76
2021/05/17 06:16:48;;;;;;;2.00;1.80;;;12.00;97.30;;;;;;4956072;28;20937;-76
2021/05/17 06:19:14;;;;;;;2.33;1.73;;;12.00;97.30;;;;;;4955895;28;20469;-76
2021/05/17 06:21:40;;;;;;;3.23;2.20;;;12.10;97.30;;;;;;4944199;29;20235;-76
2021/05/17 06:24:06;;;;;;;4.03;2.10;;;12.00;97.30;;;;;;4936307;29;20802;-74
2021/05/17 06:26:33;;;;;;;4.20;2.30;;;12.00;97.30;;;;;;4936314;29;20199;-76
2021/05/17 06:28:59;;;;;;;5.50;2.50;;;12.10;97.30;;;;;;4954004;29;20454;-76
2021/05/17 06:31:25;;;;;;;3.20;2.13;;;12.20;97.30;;;;;;4936765;29;20438;-75
2021/05/17 06:33:52;;;;;;;2.47;2.03;;;12.30;97.30;;;;;;4936368;29;20175;-75
2021/05/17 06:36:18;;;;;;;2.83;2.00;;;12.30;97.30;;;;;;4936463;29;20415;-74
2021/05/17 06:38:44;;;;;;;3.70;2.40;;;12.30;97.30;;;;;;4936250;29;20573;-75
2021/05/17 06:41:11;;;;;;;2.33;1.80;;;12.40;97.30;;;;;;4936332;29;20199;-75
2021/05/17 06:43:37;;;;;;;3.30;2.13;;;12.60;97.30;;;;;;4953324;29;20981;-75
2021/05/17 06:46:07;;;;;;;2.83;2.00;;;12.80;97.30;;;;;;4936582;29;20552;-76
2021/05/17 06:48:42;;;;;;;2.50;2.30;;;12.90;97.30;;;;;;4953478;29;21114;-76
2021/05/17 06:51:18;;;;;;;5.53;2.13;;;13.00;97.30;;;;;;4953753;29;20469;-76
2021/05/17 06:53:45;;;;;;;5.10;2.30;;;13.00;97.30;;;;;;4953494;29;20506;-76
2021/05/17 06:59:00;;;;;;;3.40;2.50;;;13.20;97.30;;;;;;4925292;29;20522;-75
2021/05/17 07:01:28;;;;;;;5.00;2.50;;;13.30;97.30;;;;;;4953375;29;20578;-76
2021/05/17 07:03:57;;;;;;;3.70;2.40;;;13.30;97.30;;;;;;4936379;29;20187;-74
2021/05/17 07:06:25;;;;;;;4.17;2.20;;;13.30;97.30;;;;;;4935818;29;20455;-75
2021/05/17 07:11:51;;;;;;;6.97;2.17;;;13.10;97.30;;;;;;4953604;29;20862;-76
2021/05/17 07:14:18;;;;;;;4.27;2.73;;;13.00;97.30;;;;;;4935967;29;20442;-76
2021/05/17 07:16:43;;;;;;;5.17;2.50;;;13.00;97.30;;;;;;4935868;29;20872;-76
2021/05/17 07:19:09;;;;;;;3.10;2.20;;;13.10;97.30;;;;;;4935794;29;20462;-75
2021/05/17 07:24:21;;;;;;;4.70;2.80;;;13.40;97.30;;;;;;4972483;28;20421;-76
2021/05/17 07:26:47;;;;;;;5.77;3.03;;;13.50;97.30;;;;;;4954754;28;20675;-76
2021/05/17 07:29:14;;;;;;;4.23;2.80;;;13.60;97.30;;;;;;4955179;28;20418;-76
2021/05/17 07:31:39;;;;;;;5.00;2.83;;;13.70;97.30;;;;;;4954740;28;20449;-75
2021/05/17 07:34:05;;;;;;;4.80;3.27;;;13.80;97.30;;;;;;4954860;28;20794;-76
2021/05/17 07:36:31;;;;;;;3.50;2.60;;;13.90;97.30;;;;;;4972713;28;20190;-75
2021/05/17 07:38:57;;;;;;;3.43;3.07;;;14.00;97.30;;;;;;4972516;28;20181;-75
2021/05/17 07:41:23;;;;;;;3.30;2.63;;;13.90;97.30;;;;;;4972317;28;20426;-75
2021/05/17 07:43:49;;;;;;;3.07;2.87;;;14.00;97.30;;;;;;4955090;28;20433;-76
2021/05/17 07:46:14;;;;;;;2.17;1.97;;;14.20;97.30;;;;;;4973280;28;20456;-76
2021/05/17 07:51:25;;;;;;;3.23;2.67;;;14.50;97.30;;;;;;4972617;28;20256;-77
2021/05/17 07:53:51;;;;;;;3.37;2.40;;;14.30;97.20;;;;;;4954888;28;20421;-76
2021/05/17 07:56:17;;;;;;;2.93;2.70;;;14.00;96.60;;;;;;4971950;28;20414;-76
2021/05/17 07:58:44;;;;;;;6.07;3.47;;;13.90;96.70;;;;;;4954888;28;20421;-76
2021/05/17 08:01:12;;;;;;;4.30;2.83;;;14.00;97.30;;;;;;4972802;28;20213;-76
2021/05/17 08:03:39;;;;;;;3.43;2.80;;;14.30;97.30;;;;;;4954511;28;20513;-76
2021/05/17 08:06:07;;;;;;;5.10;2.80;;;14.50;97.30;;;;;;4954433;28;20965;-76
2021/05/17 08:08:32;;;;;;;3.40;2.30;;;14.60;97.20;;;;;;4954759;28;21325;-74
2021/05/17 08:11:00;;;;;;;3.73;2.50;;;14.80;97.30;;;;;;4971908;28;20533;-76
2021/05/17 08:13:26;;;;;;;4.10;2.47;;;14.80;96.60;;;;;;4954341;28;20178;-75
2021/05/17 08:15:51;;;;;;;3.63;2.20;;;14.90;96.00;;;;;;4973753;28;20920;-76
2021/05/17 08:18:17;;;;;;;2.37;2.20;;;15.10;97.10;;;;;;4958630;28;20190;-76
2021/05/17 08:20:42;;;;;;;3.57;2.37;;;15.30;95.50;;;;;;4954084;29;20231;-76
2021/05/17 08:23:11;;;;;;;3.50;2.10;;;15.50;96.70;;;;;;4956302;29;20555;-75
2021/05/17 08:25:37;;;;;;;3.50;2.27;;;15.60;94.70;;;;;;4939251;29;20273;-76
2021/05/17 08:28:02;;;;;;;4.30;2.60;;;15.60;94.80;;;;;;4938695;29;20506;-75
2021/05/17 08:30:29;;;;;;;3.90;2.20;;;15.50;93.40;;;;;;4939187;29;20182;-76
2021/05/17 08:32:55;;;;;;;5.77;2.27;;;15.60;94.70;;;;;;4956574;29;20258;-74
2021/05/17 08:35:20;;;;;;;3.70;2.00;;;15.70;94.20;;;;;;4939017;29;21123;-75
2021/05/17 08:37:46;;;;;;;8.47;2.40;;;15.60;93.30;;;;;;4955854;29;20183;-76
2021/05/17 08:40:14;;;;;;;7.53;2.80;;;15.60;93.40;;;;;;4938914;29;20198;-75
2021/05/17 08:42:41;;;;;;;4.57;2.87;;;15.50;93.90;;;;;;4939268;29;20563;-75
2021/05/17 08:45:07;;;;;;;4.77;2.43;;;15.60;93.50;;;;;;4955863;29;20548;-76
2021/05/17 08:47:33;;;;;;;5.43;2.40;;;15.70;94.20;;;;;;4938946;29;20474;-77
2021/05/17 08:49:58;;;;;;;4.50;2.50;;;15.90;94.60;;;;;;4938894;29;20932;-77
2021/05/17 08:52:25;;;;;;;3.00;1.87;;;16.10;93.70;;;;;;4938187;29;20206;-76
2021/05/17 08:54:50;;;;;;;2.47;2.00;;;16.10;90.60;;;;;;4938320;29;20182;-75
2021/05/17 08:57:16;;;;;;;3.60;2.57;;;16.00;91.80;;;;;;4938776;29;20846;-75
2021/05/17 08:59:42;;;;;;;2.37;2.00;;;16.00;92.10;;;;;;4938607;29;20191;-75
2021/05/17 09:02:08;;;;;;;7.67;2.20;;;16.00;91.60;;;;;;4955289;29;20199;-75
2021/05/17 09:04:33;;;;;;;3.77;2.27;;;16.20;91.80;;;;;;4938323;29;20187;-75
2021/05/17 09:06:59;;;;;;;5.80;2.93;;;16.30;90.80;;;;;;4938445;29;20567;-75
2021/05/17 09:09:32;;;;;;;7.67;3.00;;;16.50;91.50;;;;;;4938148;29;20456;-75
2021/05/17 09:12:06;;;;;;;4.40;2.60;;;16.50;91.80;;;;;;4937949;29;20442;-75
2021/05/17 09:14:33;;;;;;;4.20;2.10;;;16.90;91.50;;;;;;4938150;29;20790;-75
2021/05/17 09:17:11;;;;;;;4.20;1.77;;;16.80;88.50;;;;;;4937852;29;20497;-75
2021/05/17 09:19:42;;;;;;;4.17;2.37;;;16.50;89.10;;;;;;4937778;29;20474;-77
2021/05/17 09:22:18;;;;;;;4.10;2.10;;;16.50;89.20;;;;;;4937857;29;20812;-74
2021/05/17 09:24:51;;;;;;;3.43;1.87;;;16.50;88.90;;;;;;4937814;29;20806;-74
2021/05/17 09:27:18;;;;;;;6.13;1.93;;;16.50;89.00;;;;;;4936502;29;20470;-76
2021/05/17 09:29:49;;;;;;;4.93;2.33;;;16.50;89.60;;;;;;4937674;29;20447;-75
2021/05/17 09:32:21;;;;;;;3.40;1.73;;;16.70;89.80;;;;;;4937497;29;20439;-75
2021/05/17 09:34:59;;;;;;;2.80;1.70;;;16.90;90.20;;;;;;4937059;29;20418;-74
2021/05/17 09:37:25;;;;;;;3.20;2.10;;;17.00;86.70;;;;;;4937642;29;20419;-75
2021/05/17 09:39:52;;;;;;;5.90;2.00;;;17.20;86.40;;;;;;4955095;29;20407;-76
2021/05/17 09:42:23;;;;;;;7.90;2.47;;;17.30;86.60;;;;;;4936959;29;20493;-74
2021/05/17 09:44:50;;;;;;;3.07;1.80;;;17.20;86.10;;;;;;4955165;29;20429;-75
2021/05/17 09:47:19;;;;;;;3.40;1.87;;;17.20;86.40;;;;;;4954494;29;20517;-75
2021/05/17 09:49:48;;;;;;;5.63;2.20;;;17.20;86.90;;;;;;4954739;29;20949;-76
2021/05/17 09:52:18;;;;;;;3.77;2.20;;;17.10;86.20;;;;;;4937378;29;20663;-75
2021/05/17 09:54:57;;;;;;;2.93;1.90;;;17.00;87.40;;;;;;4936814;29;20423;-75
2021/05/17 09:57:31;;;;;;;3.67;2.10;;;17.20;87.20;;;;;;4937596;29;20853;-75
2021/05/17 09:59:58;;;;;;;5.17;2.33;;;17.40;87.20;;;;;;4936862;29;20430;-76
2021/05/17 10:02:39;;;;;;;2.87;2.00;;;17.60;85.50;;;;;;4960191;23;20869;-77
2021/05/17 10:05:29;;;;;;;7.80;1.80;;;17.90;86.80;;;;;;4954407;28;20429;-77
2021/05/17 10:08:01;;;;;;;6.53;2.50;;;18.00;86.00;;;;;;4955661;28;20467;-77
2021/05/17 10:10:28;;;;;;;8.90;1.90;;;18.00;85.60;;;;;;4956031;28;20425;-77
2021/05/17 10:12:56;;;;;;;4.00;1.63;;;17.90;85.60;;;;;;4955769;28;20417;-77
2021/05/17 10:15:25;;;;;;;3.90;1.50;;;17.90;85.00;;;;;;4955948;28;20418;-77
2021/05/17 10:17:51;;;;;;;4.93;2.00;;;17.90;85.90;;;;;;4956050;28;20424;-76
2021/05/17 10:20:20;;;;;;;4.73;1.80;;;18.00;86.40;;;;;;4955791;28;20509;-77
2021/05/17 10:22:48;;;;;;;6.37;2.00;;;18.00;84.90;;;;;;4955887;28;20175;-77
2021/05/17 10:25:21;;;;;;;2.77;1.93;;;17.90;87.00;;;;;;4973087;28;20422;-76
2021/05/17 10:27:49;;;;;;;4.50;1.80;;;17.90;85.00;;;;;;4956027;28;20470;-77
2021/05/17 10:30:24;;;;;;;2.60;1.60;;;17.90;86.50;;;;;;4955667;28;20410;-76
2021/05/17 10:32:53;;;;;;;3.50;1.97;;;17.80;85.60;;;;;;4955574;28;20838;-76
2021/05/17 10:35:22;;;;;;;2.50;1.70;;;17.80;86.30;;;;;;4955177;28;20425;-76
2021/05/17 10:37:49;;;;;;;3.97;1.80;;;17.80;86.50;;;;;;4972436;28;20418;-76
2021/05/17 10:40:34;;;;;;;5.80;2.10;;;17.90;86.30;;;;;;4955432;28;20417;-76
2021/05/17 10:43:16;;;;;;;7.33;2.30;;;18.00;87.10;;;;;;4955573;28;20422;-76
2021/05/17 10:48:18;;;;;;;3.50;2.23;;;18.40;85.30;;;;;;4972781;28;20967;-75
2021/05/17 10:51:18;;;;;;;4.10;1.93;;;18.40;84.90;;;;;;4954821;28;20434;-76
2021/05/17 10:53:54;;;;;;;3.83;2.10;;;18.10;85.10;;;;;;4955042;28;20876;-77
2021/05/17 10:56:39;;;;;;;2.40;1.87;;;18.00;85.30;;;;;;4954642;28;20418;-76
2021/05/17 11:02:08;;;;;;;3.90;1.80;;;17.50;86.10;;;;;;4972498;28;21050;-76
2021/05/17 11:04:37;;;;;;;2.50;2.00;;;17.70;87.10;;;;;;4941403;29;20749;-76
2021/05/17 11:07:13;;;;;;;3.40;1.73;;;18.10;87.90;;;;;;4935524;29;20905;-76
2021/05/17 11:10:01;;;;;;;3.57;1.80;;;18.30;87.10;;;;;;4953034;29;20410;-76
2021/05/17 11:12:27;;;;;;;4.90;2.10;;;18.60;86.90;;;;;;4935513;29;20435;-75
2021/05/17 11:15:10;;;;;;;2.97;1.80;;;18.70;84.60;;;;;;4935559;29;20407;-75
2021/05/17 11:18:06;;;;;;;2.07;1.73;;;18.90;84.70;;;;;;4952909;29;20182;-75
2021/05/17 11:20:38;;;;;;;5.63;1.97;;;19.00;84.60;;;;;;4935378;29;20462;-76
2021/05/17 11:23:22;;;;;;;6.20;2.30;;;18.80;84.50;;;;;;4935464;29;20414;-76
2021/05/17 11:26:04;;;;;;;4.50;2.07;;;18.50;85.20;;;;;;4935578;29;20497;-74
2021/05/17 11:28:39;;;;;;;4.63;1.80;;;18.60;86.00;;;;;;4935775;29;20410;-74
2021/05/17 11:31:20;;;;;;;2.33;1.60;;;18.80;86.20;;;;;;4935084;29;20441;-74
2021/05/17 11:34:19;;;;;;;2.50;1.63;;;19.20;84.20;;;;;;4935259;29;20443;-73
2021/05/17 11:36:52;;;;;;;3.50;1.70;;;19.30;82.20;;;;;;4920619;29;20872;-76
2021/05/17 11:39:34;;;;;;;2.57;1.60;;;19.40;82.20;;;;;;4935294;29;20541;-76
2021/05/17 11:42:01;;;;;;;4.70;1.70;;;19.50;81.90;;;;;;4935413;29;20787;-76
2021/05/17 11:44:34;;;;;;;1.90;1.50;;;19.10;82.30;;;;;;4935658;29;20415;-76
2021/05/17 11:47:14;;;;;;;2.03;1.50;;;18.80;84.40;;;;;;4935085;29;20470;-76
2021/05/17 11:49:42;;;;;;;5.13;1.97;;;18.50;82.20;;;;;;4934585;29;20422;-76
2021/05/17 11:52:17;;;;;;;19.37;1.63;;;18.10;83.30;;;;;;4934624;29;20536;-77
2021/05/17 11:54:46;;;;;;;2.00;1.30;;;18.10;83.20;;;;;;4952390;29;20453;-75
2021/05/17 11:57:12;;;;;;;3.00;1.40;;;18.40;84.00;;;;;;4934693;29;20942;-76
2021/05/17 11:59:38;;;;;;;2.50;1.40;;;18.80;83.00;;;;;;4952390;29;20427;-76
2021/05/17 12:02:10;;;;;;;2.07;1.33;;;18.70;81.60;;;;;;4934916;29;20485;-73
2021/05/17 12:04:41;;;;;;;1.80;1.13;;;18.90;83.20;;;;;;4947998;28;20521;-73
2021/05/17 12:07:09;;;;;;;2.70;1.63;;;18.70;82.00;;;;;;4954479;28;20497;-77
2021/05/17 12:09:48;;;;;;;1.90;1.40;;;18.80;82.70;;;;;;4954109;28;20496;-76
2021/05/17 12:12:16;;;;;;;1.93;1.47;;;19.00;83.70;;;;;;4953980;28;20560;-74
2021/05/17 12:14:44;;;;;;;3.20;1.40;;;19.20;82.60;;;;;;4954061;28;20985;-74
2021/05/17 12:17:18;;;;;;;1.50;1.30;;;19.50;82.00;;;;;;4953815;28;20425;-76
2021/05/17 12:19:46;;;;;;;2.07;1.43;;;19.80;81.70;;;;;;4954020;28;20416;-77
2021/05/17 12:22:25;;;;;;;1.20;1.20;;;19.20;80.90;;;;;;4954105;28;20497;-76
2021/05/17 12:24:54;;;;;;;2.30;1.30;;;19.40;82.20;;;;;;4954299;28;20417;-76
2021/05/17 12:27:21;;;;;;;2.20;1.30;;;19.70;81.00;;;;;;4954013;28;20465;-77
2021/05/17 12:30:09;;;;;;;2.40;1.33;;;20.00;80.50;;;;;;4971054;28;20414;-76
2021/05/17 12:32:37;;;;;;;2.27;1.30;;;20.00;80.30;;;;;;4953899;28;20524;-76
2021/05/17 12:35:14;;;;;;;1.17;1.10;;;19.60;80.30;;;;;;4953802;28;20410;-76
2021/05/17 12:37:46;;;;;;;2.10;1.20;;;19.30;80.40;;;;;;4953960;28;20853;-76
2021/05/17 12:40:15;;;;;;;1.53;1.30;;;18.80;80.30;;;;;;4953932;28;20445;-76
2021/05/17 12:42:41;;;;;;;1.30;1.13;;;18.50;80.80;;;;;;4953879;28;20477;-76
2021/05/17 12:45:10;;;;;;;1.23;1.13;;;18.40;81.40;;;;;;4954036;28;20458;-76
2021/05/17 12:47:43;;;;;;;1.40;1.20;;;18.60;80.90;;;;;;4953945;28;20468;-76
2021/05/17 12:50:32;;;;;;;1.80;1.20;;;18.60;80.90;;;;;;4953898;28;20447;-76
2021/05/17 12:53:19;;;;;;;2.70;1.10;;;18.70;82.00;;;;;;4953650;28;20426;-75
2021/05/17 12:55:50;;;;;;;1.40;1.20;;;18.60;81.70;;;;;;4954089;28;20436;-74
2021/05/17 12:58:36;;;;;;;2.70;1.30;;;18.60;81.90;;;;;;4953868;28;20414;-75
2021/05/17 13:01:17;;;;;;;2.03;1.50;;;18.50;83.30;;;;;;4971908;28;20430;-74
2021/05/17 13:03:44;;;;;;;1.93;1.30;;;18.10;83.60;;;;;;4950296;29;20437;-74
2021/05/17 13:06:20;;;;;;;2.60;1.20;;;18.00;83.90;;;;;;4937696;29;20466;-75
2021/05/17 13:08:54;;;;;;;1.43;1.27;;;17.90;83.10;;;;;;4937981;29;20419;-75
2021/05/17 13:11:27;;;;;;;1.30;1.20;;;18.00;83.40;;;;;;4937501;29;20998;-74
2021/05/17 13:13:58;;;;;;;1.37;1.23;;;18.40;83.40;;;;;;4937537;29;20439;-74
2021/05/17 13:16:28;;;;;;;1.73;1.30;;;19.00;83.10;;;;;;4937808;29;20418;-74
2021/05/17 13:22:19;;;;;;;2.63;1.20;;;19.90;78.90;;;;;;4935634;29;20439;-77
2021/05/17 13:25:26;;;;;;;2.93;1.50;;;19.70;79.20;;;;;;4937603;29;20426;-77
2021/05/17 13:31:01;;;;;;;2.00;1.30;;;19.40;79.20;;;;;;4954721;29;20952;-77
2021/05/17 13:33:33;;;;;;;3.87;1.73;;;18.90;80.40;;;;;;4937321;29;20429;-77
2021/05/17 13:36:08;;;;;;;5.00;1.60;;;18.70;81.30;;;;;;4954488;29;20422;-77